Terminal Aerodrome Forecast
Issued by NWS

Home | Current Version | Previous Version | Text Only | Print | Product List | Glossary On
Versions: 1 2 3 4 5 6 7 8 9 10 11 12 13 14 15 16 17 18
157
FTUS43 KFGF 220520
TAFBJI
TAF
KBJI 220520Z 2206/2306 00000KT 1/2SM FG OVC002
     FM220700 00000KT 1/4SM FG OVC003
     FM221600 00000KT 1/2SM FG OVC003
     FM221700 00000KT 3/4SM BR OVC003
     FM221900 VRB03KT P6SM OVC003=

USA.gov is the U.S. government's official web portal to all federal, state and local government web resources and services.